sensor_id;sensor_type;location;lat;lon;timestamp;temperature;humidity
37518;DHT22;23366;52.498;13.446;2022-10-20T00:01:17;8.20;99.90
37518;DHT22;23366;52.498;13.446;2022-10-20T00:03:43;8.10;99.90
37518;DHT22;23366;52.498;13.446;2022-10-20T00:06:22;8.10;99.90
37518;DHT22;23366;52.498;13.446;2022-10-20T00:08:48;8.10;99.90
37518;DHT22;23366;52.498;13.446;2022-10-20T00:11:16;8.10;99.90
37518;DHT22;23366;52.498;13.446;2022-10-20T00:13:44;8.10;99.90
37518;DHT22;23366;52.498;13.446;2022-10-20T00:16:10;8.10;99.90
37518;DHT22;23366;52.498;13.446;2022-10-20T00:18:37;8.10;99.90
37518;DHT22;23366;52.498;13.446;2022-10-20T00:21:07;8.00;99.90
37518;DHT22;23366;52.498;13.446;2022-10-20T00:23:34;8.00;99.90
37518;DHT22;23366;52.498;13.446;2022-10-20T00:26:04;8.00;99.90
37518;DHT22;23366;52.498;13.446;2022-10-20T00:28:30;8.00;99.90
37518;DHT22;23366;52.498;13.446;2022-10-20T00:30:56;8.00;99.90
37518;DHT22;23366;52.498;13.446;2022-10-20T00:33:23;8.00;99.90
37518;DHT22;23366;52.498;13.446;2022-10-20T00:35:48;8.00;99.90
37518;DHT22;23366;52.498;13.446;2022-10-20T00:38:14;7.90;99.90
37518;DHT22;23366;52.498;13.446;2022-10-20T00:40:39;7.90;99.90
37518;DHT22;23366;52.498;13.446;2022-10-20T00:43:12;7.90;99.90
37518;DHT22;23366;52.498;13.446;2022-10-20T00:45:39;7.90;99.90
37518;DHT22;23366;52.498;13.446;2022-10-20T00:48:07;7.90;99.90
37518;DHT22;23366;52.498;13.446;2022-10-20T00:50:48;7.90;99.90
37518;DHT22;23366;52.498;13.446;2022-10-20T00:53:16;7.80;99.90
37518;DHT22;23366;52.498;13.446;2022-10-20T00:55:45;7.80;99.90
37518;DHT22;23366;52.498;13.446;2022-10-20T00:58:12;7.70;99.90
37518;DHT22;23366;52.498;13.446;2022-10-20T01:00:39;7.70;99.90
37518;DHT22;23366;52.498;13.446;2022-10-20T01:03:16;7.60;99.90
37518;DHT22;23366;52.498;13.446;2022-10-20T01:05:44;7.50;99.90
37518;DHT22;23366;52.498;13.446;2022-10-20T01:08:09;7.50;99.90
37518;DHT22;23366;52.498;13.446;2022-10-20T01:10:41;7.50;99.90
37518;DHT22;23366;52.498;13.446;2022-10-20T01:13:42;7.50;99.90
37518;DHT22;23366;52.498;13.446;2022-10-20T01:16:22;7.50;99.90
37518;DHT22;23366;52.498;13.446;2022-10-20T01:22:25;7.40;99.90
37518;DHT22;23366;52.498;13.446;2022-10-20T01:25:15;7.40;99.90
37518;DHT22;23366;52.498;13.446;2022-10-20T01:27:44;7.40;99.90
37518;DHT22;23366;52.498;13.446;2022-10-20T01:30:17;7.30;99.90
37518;DHT22;23366;52.498;13.446;2022-10-20T01:33:15;7.30;99.90
37518;DHT22;23366;52.498;13.446;2022-10-20T01:36:00;7.30;99.90
37518;DHT22;23366;52.498;13.446;2022-10-20T01:41:17;7.20;99.90
37518;DHT22;23366;52.498;13.446;2022-10-20T01:43:46;7.30;99.90
37518;DHT22;23366;52.498;13.446;2022-10-20T01:46:13;7.20;99.90
37518;DHT22;23366;52.498;13.446;2022-10-20T01:48:40;7.20;99.90
37518;DHT22;23366;52.498;13.446;2022-10-20T01:51:07;7.20;99.90
37518;DHT22;23366;52.498;13.446;2022-10-20T01:53:33;7.20;99.90
37518;DHT22;23366;52.498;13.446;2022-10-20T01:55:59;7.20;99.90
37518;DHT22;23366;52.498;13.446;2022-10-20T02:02:01;7.20;99.90
37518;DHT22;23366;52.498;13.446;2022-10-20T02:07:16;7.20;99.90
37518;DHT22;23366;52.498;13.446;2022-10-20T02:09:52;7.20;99.90
37518;DHT22;23366;52.498;13.446;2022-10-20T02:12:27;7.10;99.90
37518;DHT22;23366;52.498;13.446;2022-10-20T02:14:54;7.00;99.90
37518;DHT22;23366;52.498;13.446;2022-10-20T02:17:20;7.00;99.90
37518;DHT22;23366;52.498;13.446;2022-10-20T02:19:48;7.00;99.90
37518;DHT22;23366;52.498;13.446;2022-10-20T02:22:15;6.90;99.90
37518;DHT22;23366;52.498;13.446;2022-10-20T02:24:43;6.90;99.90
37518;DHT22;23366;52.498;13.446;2022-10-20T02:27:16;6.90;99.90
37518;DHT22;23366;52.498;13.446;2022-10-20T02:29:49;6.90;99.90
37518;DHT22;23366;52.498;13.446;2022-10-20T02:32:15;6.80;99.90
37518;DHT22;23366;52.498;13.446;2022-10-20T02:34:42;6.80;99.90
37518;DHT22;23366;52.498;13.446;2022-10-20T02:37:08;6.80;99.90
37518;DHT22;23366;52.498;13.446;2022-10-20T02:39:33;6.80;99.90
37518;DHT22;23366;52.498;13.446;2022-10-20T02:41:59;6.90;99.90
37518;DHT22;23366;52.498;13.446;2022-10-20T02:44:24;6.80;99.90
37518;DHT22;23366;52.498;13.446;2022-10-20T02:46:50;6.80;99.90
37518;DHT22;23366;52.498;13.446;2022-10-20T02:49:15;6.80;99.90
37518;DHT22;23366;52.498;13.446;2022-10-20T02:51:41;6.80;99.90
37518;DHT22;23366;52.498;13.446;2022-10-20T02:54:07;6.80;99.90
37518;DHT22;23366;52.498;13.446;2022-10-20T02:56:32;6.90;99.90
37518;DHT22;23366;52.498;13.446;2022-10-20T02:58:57;6.80;99.90
37518;DHT22;23366;52.498;13.446;2022-10-20T03:01:23;6.80;99.90
37518;DHT22;23366;52.498;13.446;2022-10-20T03:03:49;6.80;99.90
37518;DHT22;23366;52.498;13.446;2022-10-20T03:06:15;6.80;99.90
37518;DHT22;23366;52.498;13.446;2022-10-20T03:08:41;6.90;99.90
37518;DHT22;23366;52.498;13.446;2022-10-20T03:11:08;6.80;99.90
37518;DHT22;23366;52.498;13.446;2022-10-20T03:13:33;6.90;99.90
37518;DHT22;23366;52.498;13.446;2022-10-20T03:16:00;6.90;99.90
37518;DHT22;23366;52.498;13.446;2022-10-20T03:18:25;6.90;99.90
37518;DHT22;23366;52.498;13.446;2022-10-20T03:20:52;6.90;99.90
37518;DHT22;23366;52.498;13.446;2022-10-20T03:23:18;6.90;99.90
37518;DHT22;23366;52.498;13.446;2022-10-20T03:25:43;6.80;99.90
37518;DHT22;23366;52.498;13.446;2022-10-20T03:28:09;6.80;99.90
37518;DHT22;23366;52.498;13.446;2022-10-20T03:30:34;6.70;99.90
37518;DHT22;23366;52.498;13.446;2022-10-20T03:33:00;6.70;99.90
37518;DHT22;23366;52.498;13.446;2022-10-20T03:35:25;6.60;99.90
37518;DHT22;23366;52.498;13.446;2022-10-20T03:37:51;6.60;99.90
37518;DHT22;23366;52.498;13.446;2022-10-20T03:40:17;6.60;99.90
37518;DHT22;23366;52.498;13.446;2022-10-20T03:42:42;6.60;99.90
37518;DHT22;23366;52.498;13.446;2022-10-20T03:45:08;6.60;99.90
37518;DHT22;23366;52.498;13.446;2022-10-20T03:47:34;6.50;99.90
37518;DHT22;23366;52.498;13.446;2022-10-20T03:49:59;6.60;99.90
37518;DHT22;23366;52.498;13.446;2022-10-20T03:52:25;6.50;99.90
37518;DHT22;23366;52.498;13.446;2022-10-20T03:54:50;6.50;99.90
37518;DHT22;23366;52.498;13.446;2022-10-20T03:57:16;6.50;99.90
37518;DHT22;23366;52.498;13.446;2022-10-20T03:59:41;6.50;99.90
37518;DHT22;23366;52.498;13.446;2022-10-20T04:02:19;6.50;99.90
37518;DHT22;23366;52.498;13.446;2022-10-20T04:04:52;6.50;99.90
37518;DHT22;23366;52.498;13.446;2022-10-20T04:07:18;6.50;99.90
37518;DHT22;23366;52.498;13.446;2022-10-20T04:09:43;6.50;99.90
37518;DHT22;23366;52.498;13.446;2022-10-20T04:12:09;6.40;99.90
37518;DHT22;23366;52.498;13.446;2022-10-20T04:14:34;6.40;99.90
37518;DHT22;23366;52.498;13.446;2022-10-20T04:17:00;6.40;99.90
37518;DHT22;23366;52.498;13.446;2022-10-20T04:19:25;6.30;99.90
37518;DHT22;23366;52.498;13.446;2022-10-20T04:21:51;6.30;99.90
37518;DHT22;23366;52.498;13.446;2022-10-20T04:24:16;6.30;99.90
37518;DHT22;23366;52.498;13.446;2022-10-20T04:26:42;6.20;99.90
37518;DHT22;23366;52.498;13.446;2022-10-20T04:29:07;6.20;99.90
37518;DHT22;23366;52.498;13.446;2022-10-20T04:31:33;6.20;99.90
37518;DHT22;23366;52.498;13.446;2022-10-20T04:33:58;6.20;99.90
37518;DHT22;23366;52.498;13.446;2022-10-20T04:36:24;6.20;99.90
37518;DHT22;23366;52.498;13.446;2022-10-20T04:38:50;6.20;99.90
37518;DHT22;23366;52.498;13.446;2022-10-20T04:41:16;6.30;99.90
37518;DHT22;23366;52.498;13.446;2022-10-20T04:43:41;6.20;99.90
37518;DHT22;23366;52.498;13.446;2022-10-20T04:46:07;6.20;99.90
37518;DHT22;23366;52.498;13.446;2022-10-20T04:48:32;6.20;99.90
37518;DHT22;23366;52.498;13.446;2022-10-20T04:51:06;6.10;99.90
37518;DHT22;23366;52.498;13.446;2022-10-20T04:53:33;6.10;99.90
37518;DHT22;23366;52.498;13.446;2022-10-20T04:55:59;6.10;99.90
37518;DHT22;23366;52.498;13.446;2022-10-20T04:58:27;6.10;99.90
37518;DHT22;23366;52.498;13.446;2022-10-20T05:00:53;6.00;99.90
37518;DHT22;23366;52.498;13.446;2022-10-20T05:03:18;6.10;99.90
37518;DHT22;23366;52.498;13.446;2022-10-20T05:05:47;6.00;99.90
37518;DHT22;23366;52.498;13.446;2022-10-20T05:08:13;6.00;99.90
37518;DHT22;23366;52.498;13.446;2022-10-20T05:10:38;6.10;99.90
37518;DHT22;23366;52.498;13.446;2022-10-20T05:13:05;6.10;99.90
37518;DHT22;23366;52.498;13.446;2022-10-20T05:15:31;6.10;99.90
37518;DHT22;23366;52.498;13.446;2022-10-20T05:17:57;6.10;99.90
37518;DHT22;23366;52.498;13.446;2022-10-20T05:20:22;6.10;99.90
37518;DHT22;23366;52.498;13.446;2022-10-20T05:22:48;6.10;99.90
37518;DHT22;23366;52.498;13.446;2022-10-20T05:25:13;6.10;99.90
37518;DHT22;23366;52.498;13.446;2022-10-20T05:27:39;6.10;99.90
37518;DHT22;23366;52.498;13.446;2022-10-20T05:30:05;6.20;99.90
37518;DHT22;23366;52.498;13.446;2022-10-20T05:32:30;6.20;99.90
37518;DHT22;23366;52.498;13.446;2022-10-20T05:34:56;6.20;99.90
37518;DHT22;23366;52.498;13.446;2022-10-20T05:37:21;6.20;99.90
37518;DHT22;23366;52.498;13.446;2022-10-20T05:39:47;6.10;99.90
37518;DHT22;23366;52.498;13.446;2022-10-20T05:42:12;6.10;99.90
37518;DHT22;23366;52.498;13.446;2022-10-20T05:44:38;6.10;99.90
37518;DHT22;23366;52.498;13.446;2022-10-20T05:47:03;6.10;99.90
37518;DHT22;23366;52.498;13.446;2022-10-20T05:49:29;6.10;99.90
37518;DHT22;23366;52.498;13.446;2022-10-20T05:51:54;6.10;99.90
37518;DHT22;23366;52.498;13.446;2022-10-20T05:54:20;6.00;99.90
37518;DHT22;23366;52.498;13.446;2022-10-20T05:56:46;6.00;99.90
37518;DHT22;23366;52.498;13.446;2022-10-20T05:59:11;6.00;99.90
37518;DHT22;23366;52.498;13.446;2022-10-20T06:01:37;6.00;99.90
37518;DHT22;23366;52.498;13.446;2022-10-20T06:04:06;6.00;99.90
37518;DHT22;23366;52.498;13.446;2022-10-20T06:06:34;6.00;99.90
37518;DHT22;23366;52.498;13.446;2022-10-20T06:09:04;6.10;99.90
37518;DHT22;23366;52.498;13.446;2022-10-20T06:11:30;6.00;99.90
37518;DHT22;23366;52.498;13.446;2022-10-20T06:13:55;6.10;99.90
37518;DHT22;23366;52.498;13.446;2022-10-20T06:16:23;6.10;99.90
37518;DHT22;23366;52.498;13.446;2022-10-20T06:18:49;6.20;99.90
37518;DHT22;23366;52.498;13.446;2022-10-20T06:21:17;6.20;99.90
37518;DHT22;23366;52.498;13.446;2022-10-20T06:23:43;6.40;99.90
37518;DHT22;23366;52.498;13.446;2022-10-20T06:26:13;6.60;99.90
37518;DHT22;23366;52.498;13.446;2022-10-20T06:28:42;7.00;99.90
37518;DHT22;23366;52.498;13.446;2022-10-20T06:31:16;7.50;99.90
37518;DHT22;23366;52.498;13.446;2022-10-20T06:33:43;7.80;99.90
37518;DHT22;23366;52.498;13.446;2022-10-20T06:36:09;7.80;99.90
37518;DHT22;23366;52.498;13.446;2022-10-20T06:38:36;8.00;99.90
37518;DHT22;23366;52.498;13.446;2022-10-20T06:41:08;8.40;99.90
37518;DHT22;23366;52.498;13.446;2022-10-20T06:43:33;8.90;99.90
37518;DHT22;23366;52.498;13.446;2022-10-20T06:46:02;9.10;99.90
37518;DHT22;23366;52.498;13.446;2022-10-20T06:48:28;9.10;99.90
37518;DHT22;23366;52.498;13.446;2022-10-20T06:51:19;9.40;99.90
37518;DHT22;23366;52.498;13.446;2022-10-20T06:53:49;10.00;99.90
37518;DHT22;23366;52.498;13.446;2022-10-20T06:56:19;10.70;99.90
37518;DHT22;23366;52.498;13.446;2022-10-20T06:58:47;11.20;99.90
37518;DHT22;23366;52.498;13.446;2022-10-20T07:01:16;11.50;99.90
37518;DHT22;23366;52.498;13.446;2022-10-20T07:03:43;12.20;99.90
37518;DHT22;23366;52.498;13.446;2022-10-20T07:06:13;12.50;99.90
37518;DHT22;23366;52.498;13.446;2022-10-20T07:08:39;13.00;99.90
37518;DHT22;23366;52.498;13.446;2022-10-20T07:11:06;13.00;99.90
37518;DHT22;23366;52.498;13.446;2022-10-20T07:13:34;12.80;99.90
37518;DHT22;23366;52.498;13.446;2022-10-20T07:15:59;13.40;99.90
37518;DHT22;23366;52.498;13.446;2022-10-20T07:18:26;13.50;99.90
37518;DHT22;23366;52.498;13.446;2022-10-20T07:20:57;13.90;99.90
37518;DHT22;23366;52.498;13.446;2022-10-20T07:23:24;14.80;99.60
37518;DHT22;23366;52.498;13.446;2022-10-20T07:25:49;15.30;97.50
37518;DHT22;23366;52.498;13.446;2022-10-20T07:28:15;16.00;97.20
37518;DHT22;23366;52.498;13.446;2022-10-20T07:30:41;16.80;95.40
37518;DHT22;23366;52.498;13.446;2022-10-20T07:33:07;17.20;94.30
37518;DHT22;23366;52.498;13.446;2022-10-20T07:35:34;18.10;93.20
37518;DHT22;23366;52.498;13.446;2022-10-20T07:38:00;18.60;91.50
37518;DHT22;23366;52.498;13.446;2022-10-20T07:40:26;18.70;91.10
37518;DHT22;23366;52.498;13.446;2022-10-20T07:42:52;19.00;90.20
37518;DHT22;23366;52.498;13.446;2022-10-20T07:45:18;19.50;87.40
37518;DHT22;23366;52.498;13.446;2022-10-20T07:47:44;19.50;87.20
37518;DHT22;23366;52.498;13.446;2022-10-20T07:50:09;19.70;86.10
37518;DHT22;23366;52.498;13.446;2022-10-20T07:52:37;19.90;84.60
37518;DHT22;23366;52.498;13.446;2022-10-20T07:55:03;19.70;84.20
37518;DHT22;23366;52.498;13.446;2022-10-20T07:57:28;19.90;83.70
37518;DHT22;23366;52.498;13.446;2022-10-20T07:59:54;19.70;83.60
37518;DHT22;23366;52.498;13.446;2022-10-20T08:02:19;19.60;83.80
37518;DHT22;23366;52.498;13.446;2022-10-20T08:04:45;19.20;84.50
37518;DHT22;23366;52.498;13.446;2022-10-20T08:07:10;19.00;85.40
37518;DHT22;23366;52.498;13.446;2022-10-20T08:09:36;18.40;86.90
37518;DHT22;23366;52.498;13.446;2022-10-20T08:12:03;17.60;89.40
37518;DHT22;23366;52.498;13.446;2022-10-20T08:14:28;16.50;91.10
37518;DHT22;23366;52.498;13.446;2022-10-20T08:16:59;15.70;92.60
37518;DHT22;23366;52.498;13.446;2022-10-20T08:19:26;15.00;94.00
37518;DHT22;23366;52.498;13.446;2022-10-20T08:21:51;14.40;95.50
37518;DHT22;23366;52.498;13.446;2022-10-20T08:24:17;13.70;96.50
37518;DHT22;23366;52.498;13.446;2022-10-20T08:26:43;13.20;97.80
37518;DHT22;23366;52.498;13.446;2022-10-20T08:29:09;12.80;99.10
37518;DHT22;23366;52.498;13.446;2022-10-20T08:31:34;12.60;99.90
37518;DHT22;23366;52.498;13.446;2022-10-20T08:34:00;12.50;99.90
37518;DHT22;23366;52.498;13.446;2022-10-20T08:36:26;12.10;99.90
37518;DHT22;23366;52.498;13.446;2022-10-20T08:38:57;12.10;99.90
37518;DHT22;23366;52.498;13.446;2022-10-20T08:41:26;12.10;99.90
37518;DHT22;23366;52.498;13.446;2022-10-20T08:43:54;12.00;99.90
37518;DHT22;23366;52.498;13.446;2022-10-20T08:46:23;11.90;99.90
37518;DHT22;23366;52.498;13.446;2022-10-20T08:48:51;11.80;99.90
37518;DHT22;23366;52.498;13.446;2022-10-20T08:51:19;11.70;99.90
37518;DHT22;23366;52.498;13.446;2022-10-20T08:53:46;11.60;99.90
37518;DHT22;23366;52.498;13.446;2022-10-20T08:56:13;11.60;99.90
37518;DHT22;23366;52.498;13.446;2022-10-20T08:58:43;11.50;99.90
37518;DHT22;23366;52.498;13.446;2022-10-20T09:01:20;11.50;99.90
37518;DHT22;23366;52.498;13.446;2022-10-20T09:03:50;11.50;99.90
37518;DHT22;23366;52.498;13.446;2022-10-20T09:06:17;11.40;99.90
37518;DHT22;23366;52.498;13.446;2022-10-20T09:08:43;11.50;99.90
37518;DHT22;23366;52.498;13.446;2022-10-20T09:11:14;11.50;99.90
37518;DHT22;23366;52.498;13.446;2022-10-20T09:13:40;11.30;99.90
37518;DHT22;23366;52.498;13.446;2022-10-20T09:16:18;11.30;99.90
37518;DHT22;23366;52.498;13.446;2022-10-20T09:18:50;11.30;99.90
37518;DHT22;23366;52.498;13.446;2022-10-20T09:21:19;11.20;99.90
37518;DHT22;23366;52.498;13.446;2022-10-20T09:23:49;11.40;99.90
37518;DHT22;23366;52.498;13.446;2022-10-20T09:26:26;11.50;99.90
37518;DHT22;23366;52.498;13.446;2022-10-20T09:29:06;11.40;99.90
37518;DHT22;23366;52.498;13.446;2022-10-20T09:31:38;11.30;99.90
37518;DHT22;23366;52.498;13.446;2022-10-20T09:34:26;11.30;99.90
37518;DHT22;23366;52.498;13.446;2022-10-20T09:37:03;11.40;99.90
37518;DHT22;23366;52.498;13.446;2022-10-20T09:39:55;11.30;99.90
37518;DHT22;23366;52.498;13.446;2022-10-20T09:42:25;11.20;99.90
37518;DHT22;23366;52.498;13.446;2022-10-20T09:44:59;11.30;99.90
37518;DHT22;23366;52.498;13.446;2022-10-20T09:47:26;11.30;99.90
37518;DHT22;23366;52.498;13.446;2022-10-20T09:50:03;11.40;99.90
37518;DHT22;23366;52.498;13.446;2022-10-20T09:52:32;11.40;99.90
37518;DHT22;23366;52.498;13.446;2022-10-20T09:55:02;11.40;99.90
37518;DHT22;23366;52.498;13.446;2022-10-20T09:57:29;11.40;99.90
37518;DHT22;23366;52.498;13.446;2022-10-20T09:59:56;11.40;99.90
37518;DHT22;23366;52.498;13.446;2022-10-20T10:04:49;11.50;99.90
37518;DHT22;23366;52.498;13.446;2022-10-20T10:10:00;11.60;99.90
37518;DHT22;23366;52.498;13.446;2022-10-20T10:12:27;11.60;99.90
37518;DHT22;23366;52.498;13.446;2022-10-20T10:15:02;11.70;99.90
37518;DHT22;23366;52.498;13.446;2022-10-20T10:17:35;11.80;99.90
37518;DHT22;23366;52.498;13.446;2022-10-20T10:20:05;11.90;99.90
37518;DHT22;23366;52.498;13.446;2022-10-20T10:22:32;12.00;99.90
37518;DHT22;23366;52.498;13.446;2022-10-20T10:24:59;12.00;99.90
37518;DHT22;23366;52.498;13.446;2022-10-20T10:27:27;12.00;99.90
37518;DHT22;23366;52.498;13.446;2022-10-20T10:29:55;12.10;99.90
37518;DHT22;23366;52.498;13.446;2022-10-20T10:32:45;12.20;99.90
37518;DHT22;23366;52.498;13.446;2022-10-20T10:35:40;12.40;99.90
37518;DHT22;23366;52.498;13.446;2022-10-20T10:38:09;12.50;99.90
37518;DHT22;23366;52.498;13.446;2022-10-20T10:46:11;12.70;99.90
37518;DHT22;23366;52.498;13.446;2022-10-20T10:48:44;12.70;99.90
37518;DHT22;23366;52.498;13.446;2022-10-20T10:54:16;12.80;99.90
37518;DHT22;23366;52.498;13.446;2022-10-20T10:56:48;12.80;99.90
37518;DHT22;23366;52.498;13.446;2022-10-20T11:02:01;12.70;99.90
37518;DHT22;23366;52.498;13.446;2022-10-20T11:07:36;12.70;99.90
37518;DHT22;23366;52.498;13.446;2022-10-20T11:10:33;12.70;99.90
37518;DHT22;23366;52.498;13.446;2022-10-20T11:13:31;12.70;99.90
37518;DHT22;23366;52.498;13.446;2022-10-20T11:16:20;12.70;99.90
37518;DHT22;23366;52.498;13.446;2022-10-20T11:19:12;12.70;99.90
37518;DHT22;23366;52.498;13.446;2022-10-20T11:22:09;12.70;99.90
37518;DHT22;23366;52.498;13.446;2022-10-20T11:27:35;12.90;99.90
37518;DHT22;23366;52.498;13.446;2022-10-20T11:30:17;12.90;99.90
37518;DHT22;23366;52.498;13.446;2022-10-20T11:32:57;13.00;99.90
37518;DHT22;23366;52.498;13.446;2022-10-20T11:35:50;13.20;99.90
37518;DHT22;23366;52.498;13.446;2022-10-20T11:38:40;13.20;99.90
37518;DHT22;23366;52.498;13.446;2022-10-20T11:41:24;13.20;99.90
37518;DHT22;23366;52.498;13.446;2022-10-20T11:44:02;13.20;99.90
37518;DHT22;23366;52.498;13.446;2022-10-20T11:46:39;13.30;99.90
37518;DHT22;23366;52.498;13.446;2022-10-20T11:49:07;13.30;99.90
37518;DHT22;23366;52.498;13.446;2022-10-20T11:51:46;13.30;99.90
37518;DHT22;23366;52.498;13.446;2022-10-20T11:54:40;13.40;99.90
37518;DHT22;23366;52.498;13.446;2022-10-20T11:57:19;13.40;99.90
37518;DHT22;23366;52.498;13.446;2022-10-20T12:03:08;13.40;99.90
37518;DHT22;23366;52.498;13.446;2022-10-20T12:08:20;13.40;99.90
37518;DHT22;23366;52.498;13.446;2022-10-20T12:19:32;13.30;99.90
37518;DHT22;23366;52.498;13.446;2022-10-20T12:22:04;13.30;99.90
37518;DHT22;23366;52.498;13.446;2022-10-20T12:25:14;13.30;99.90
37518;DHT22;23366;52.498;13.446;2022-10-20T12:27:29;13.30;99.90
37518;DHT22;23366;52.498;13.446;2022-10-20T12:34:50;13.40;99.90
37518;DHT22;23366;52.498;13.446;2022-10-20T12:37:17;13.40;99.90
37518;DHT22;23366;52.498;13.446;2022-10-20T12:39:44;13.40;99.90
37518;DHT22;23366;52.498;13.446;2022-10-20T12:44:51;13.40;99.90
37518;DHT22;23366;52.498;13.446;2022-10-20T12:47:27;13.40;99.90
37518;DHT22;23366;52.498;13.446;2022-10-20T12:53:23;13.40;99.90
37518;DHT22;23366;52.498;13.446;2022-10-20T12:55:59;13.50;99.90
37518;DHT22;23366;52.498;13.446;2022-10-20T12:58:30;13.50;99.90
37518;DHT22;23366;52.498;13.446;2022-10-20T13:03:35;13.60;99.80
37518;DHT22;23366;52.498;13.446;2022-10-20T13:16:50;13.60;99.70
37518;DHT22;23366;52.498;13.446;2022-10-20T13:19:37;13.60;99.90
37518;DHT22;23366;52.498;13.446;2022-10-20T13:25:02;13.60;99.80
37518;DHT22;23366;52.498;13.446;2022-10-20T13:27:29;13.60;99.80
37518;DHT22;23366;52.498;13.446;2022-10-20T13:29:54;13.60;99.70
37518;DHT22;23366;52.498;13.446;2022-10-20T13:32:58;13.60;99.80
37518;DHT22;23366;52.498;13.446;2022-10-20T13:35:34;13.60;99.70
37518;DHT22;23366;52.498;13.446;2022-10-20T13:38:05;13.50;99.90
37518;DHT22;23366;52.498;13.446;2022-10-20T13:40:50;13.50;99.70
37518;DHT22;23366;52.498;13.446;2022-10-20T13:46:07;13.50;99.60
37518;DHT22;23366;52.498;13.446;2022-10-20T13:49:00;13.50;99.70
37518;DHT22;23366;52.498;13.446;2022-10-20T13:51:31;13.50;99.60
37518;DHT22;23366;52.498;13.446;2022-10-20T13:54:00;13.50;99.50
37518;DHT22;23366;52.498;13.446;2022-10-20T13:56:38;13.50;99.80
37518;DHT22;23366;52.498;13.446;2022-10-20T14:01:38;13.50;99.90
37518;DHT22;23366;52.498;13.446;2022-10-20T14:04:34;13.50;99.90
37518;DHT22;23366;52.498;13.446;2022-10-20T14:07:11;13.40;99.90
37518;DHT22;23366;52.498;13.446;2022-10-20T14:09:38;13.40;99.90
37518;DHT22;23366;52.498;13.446;2022-10-20T14:12:22;13.40;99.90
37518;DHT22;23366;52.498;13.446;2022-10-20T14:14:49;13.30;99.90
37518;DHT22;23366;52.498;13.446;2022-10-20T14:17:18;13.30;99.90
37518;DHT22;23366;52.498;13.446;2022-10-20T14:19:44;13.30;99.90
37518;DHT22;23366;52.498;13.446;2022-10-20T14:22:21;13.30;99.90
37518;DHT22;23366;52.498;13.446;2022-10-20T14:24:52;13.30;99.90
37518;DHT22;23366;52.498;13.446;2022-10-20T14:27:23;13.30;99.90
37518;DHT22;23366;52.498;13.446;2022-10-20T14:29:50;13.30;99.90
37518;DHT22;23366;52.498;13.446;2022-10-20T14:32:18;13.30;99.90
37518;DHT22;23366;52.498;13.446;2022-10-20T14:34:57;13.20;99.90
37518;DHT22;23366;52.498;13.446;2022-10-20T14:37:32;13.20;99.90
37518;DHT22;23366;52.498;13.446;2022-10-20T14:40:05;13.10;99.90
37518;DHT22;23366;52.498;13.446;2022-10-20T14:42:32;13.20;99.90
37518;DHT22;23366;52.498;13.446;2022-10-20T14:45:00;13.10;99.90
37518;DHT22;23366;52.498;13.446;2022-10-20T14:47:33;13.10;99.90
37518;DHT22;23366;52.498;13.446;2022-10-20T14:50:03;13.10;99.90
37518;DHT22;23366;52.498;13.446;2022-10-20T14:52:31;13.10;99.90
37518;DHT22;23366;52.498;13.446;2022-10-20T14:54:59;13.10;99.90
37518;DHT22;23366;52.498;13.446;2022-10-20T14:57:31;13.10;99.90
37518;DHT22;23366;52.498;13.446;2022-10-20T15:00:22;13.10;99.90
37518;DHT22;23366;52.498;13.446;2022-10-20T15:02:48;13.00;99.90
37518;DHT22;23366;52.498;13.446;2022-10-20T15:07:55;13.00;99.90
37518;DHT22;23366;52.498;13.446;2022-10-20T15:10:23;13.00;99.90
37518;DHT22;23366;52.498;13.446;2022-10-20T15:12:50;12.90;99.90
37518;DHT22;23366;52.498;13.446;2022-10-20T15:17:51;12.90;99.90
37518;DHT22;23366;52.498;13.446;2022-10-20T15:23:16;12.70;99.90
37518;DHT22;23366;52.498;13.446;2022-10-20T15:28:28;12.60;99.90
37518;DHT22;23366;52.498;13.446;2022-10-20T15:30:54;12.50;99.90
37518;DHT22;23366;52.498;13.446;2022-10-20T15:33:19;12.50;99.90
37518;DHT22;23366;52.498;13.446;2022-10-20T15:35:45;12.40;99.90
37518;DHT22;23366;52.498;13.446;2022-10-20T15:38:13;12.40;99.90
37518;DHT22;23366;52.498;13.446;2022-10-20T15:40:39;12.30;99.90
37518;DHT22;23366;52.498;13.446;2022-10-20T15:43:05;12.30;99.90
37518;DHT22;23366;52.498;13.446;2022-10-20T15:45:34;12.30;99.90
37518;DHT22;23366;52.498;13.446;2022-10-20T15:48:01;12.20;99.90
37518;DHT22;23366;52.498;13.446;2022-10-20T15:50:27;12.20;99.90
37518;DHT22;23366;52.498;13.446;2022-10-20T15:52:52;12.10;99.90
37518;DHT22;23366;52.498;13.446;2022-10-20T15:55:28;12.00;99.90
37518;DHT22;23366;52.498;13.446;2022-10-20T15:57:55;12.00;99.90
37518;DHT22;23366;52.498;13.446;2022-10-20T16:00:22;11.90;99.90
37518;DHT22;23366;52.498;13.446;2022-10-20T16:02:49;11.90;99.90
37518;DHT22;23366;52.498;13.446;2022-10-20T16:05:16;11.90;99.90
37518;DHT22;23366;52.498;13.446;2022-10-20T16:07:41;11.80;99.90
37518;DHT22;23366;52.498;13.446;2022-10-20T16:10:09;11.70;99.90
37518;DHT22;23366;52.498;13.446;2022-10-20T16:12:35;11.70;99.90
37518;DHT22;23366;52.498;13.446;2022-10-20T16:15:01;11.70;99.90
37518;DHT22;23366;52.498;13.446;2022-10-20T16:17:26;11.60;99.90
37518;DHT22;23366;52.498;13.446;2022-10-20T16:19:52;11.60;99.90
37518;DHT22;23366;52.498;13.446;2022-10-20T16:22:18;11.60;99.90
37518;DHT22;23366;52.498;13.446;2022-10-20T16:24:43;11.60;99.90
37518;DHT22;23366;52.498;13.446;2022-10-20T16:27:10;11.50;99.90
37518;DHT22;23366;52.498;13.446;2022-10-20T16:29:35;11.40;99.90
37518;DHT22;23366;52.498;13.446;2022-10-20T16:32:01;11.40;99.90
37518;DHT22;23366;52.498;13.446;2022-10-20T16:34:27;11.40;99.90
37518;DHT22;23366;52.498;13.446;2022-10-20T16:36:52;11.40;99.90
37518;DHT22;23366;52.498;13.446;2022-10-20T16:39:18;11.30;99.90
37518;DHT22;23366;52.498;13.446;2022-10-20T16:41:44;11.30;99.90
37518;DHT22;23366;52.498;13.446;2022-10-20T16:44:10;11.30;99.90
37518;DHT22;23366;52.498;13.446;2022-10-20T16:46:39;11.30;99.90
37518;DHT22;23366;52.498;13.446;2022-10-20T16:49:05;11.20;99.90
37518;DHT22;23366;52.498;13.446;2022-10-20T16:51:30;11.20;99.90
37518;DHT22;23366;52.498;13.446;2022-10-20T16:53:56;11.10;99.90
37518;DHT22;23366;52.498;13.446;2022-10-20T16:56:23;11.10;99.90
37518;DHT22;23366;52.498;13.446;2022-10-20T16:58:49;11.10;99.90
37518;DHT22;23366;52.498;13.446;2022-10-20T17:01:16;11.00;99.90
37518;DHT22;23366;52.498;13.446;2022-10-20T17:03:44;11.00;99.90
37518;DHT22;23366;52.498;13.446;2022-10-20T17:06:11;11.00;99.90
37518;DHT22;23366;52.498;13.446;2022-10-20T17:08:37;10.90;99.90
37518;DHT22;23366;52.498;13.446;2022-10-20T17:11:05;10.90;99.90